sensor_id;sensor_type;location;lat;lon;timestamp;P1;durP1;ratioP1;P2;durP2;ratioP2
19205;SDS011;59358;52.134;5.596;2022-10-26T00:00:07;31.65;;;18.05;;
19205;SDS011;59358;52.134;5.596;2022-10-26T00:02:34;34.83;;;20.05;;
19205;SDS011;59358;52.134;5.596;2022-10-26T00:05:01;40.22;;;20.08;;
19205;SDS011;59358;52.134;5.596;2022-10-26T00:07:28;31.50;;;18.20;;
19205;SDS011;59358;52.134;5.596;2022-10-26T00:09:54;33.88;;;18.40;;
19205;SDS011;59358;52.134;5.596;2022-10-26T00:12:21;35.63;;;18.40;;
19205;SDS011;59358;52.134;5.596;2022-10-26T00:14:49;37.15;;;17.98;;
19205;SDS011;59358;52.134;5.596;2022-10-26T00:17:16;39.67;;;18.77;;
19205;SDS011;59358;52.134;5.596;2022-10-26T00:19:43;32.78;;;19.40;;
19205;SDS011;59358;52.134;5.596;2022-10-26T00:22:10;34.10;;;17.35;;
19205;SDS011;59358;52.134;5.596;2022-10-26T00:24:37;34.67;;;18.55;;
19205;SDS011;59358;52.134;5.596;2022-10-26T00:27:04;31.15;;;17.00;;
19205;SDS011;59358;52.134;5.596;2022-10-26T00:29:30;35.95;;;19.75;;
19205;SDS011;59358;52.134;5.596;2022-10-26T00:31:59;37.53;;;19.50;;
19205;SDS011;59358;52.134;5.596;2022-10-26T00:34:26;39.70;;;19.95;;
19205;SDS011;59358;52.134;5.596;2022-10-26T00:36:52;39.15;;;19.95;;
19205;SDS011;59358;52.134;5.596;2022-10-26T00:39:20;49.08;;;23.10;;
19205;SDS011;59358;52.134;5.596;2022-10-26T00:41:47;44.50;;;22.70;;
19205;SDS011;59358;52.134;5.596;2022-10-26T00:47:23;51.28;;;23.45;;
19205;SDS011;59358;52.134;5.596;2022-10-26T00:49:54;52.55;;;25.27;;
19205;SDS011;59358;52.134;5.596;2022-10-26T00:52:22;46.08;;;24.73;;
19205;SDS011;59358;52.134;5.596;2022-10-26T00:54:50;53.50;;;27.00;;
19205;SDS011;59358;52.134;5.596;2022-10-26T00:57:18;48.03;;;25.73;;
19205;SDS011;59358;52.134;5.596;2022-10-26T00:59:45;42.53;;;24.45;;
19205;SDS011;59358;52.134;5.596;2022-10-26T01:02:13;55.97;;;26.00;;
19205;SDS011;59358;52.134;5.596;2022-10-26T01:04:41;47.70;;;24.35;;
19205;SDS011;59358;52.134;5.596;2022-10-26T01:07:11;45.10;;;24.20;;
19205;SDS011;59358;52.134;5.596;2022-10-26T01:09:38;38.00;;;21.58;;
19205;SDS011;59358;52.134;5.596;2022-10-26T01:12:05;41.08;;;23.25;;
19205;SDS011;59358;52.134;5.596;2022-10-26T01:14:32;46.10;;;22.35;;
19205;SDS011;59358;52.134;5.596;2022-10-26T01:17:01;37.80;;;20.17;;
19205;SDS011;59358;52.134;5.596;2022-10-26T01:19:45;38.35;;;20.73;;
19205;SDS011;59358;52.134;5.596;2022-10-26T01:22:32;33.67;;;19.60;;
19205;SDS011;59358;52.134;5.596;2022-10-26T01:25:07;32.50;;;19.00;;
19205;SDS011;59358;52.134;5.596;2022-10-26T01:27:41;35.10;;;19.58;;
19205;SDS011;59358;52.134;5.596;2022-10-26T01:30:16;35.28;;;18.10;;
19205;SDS011;59358;52.134;5.596;2022-10-26T01:32:46;32.65;;;17.98;;
19205;SDS011;59358;52.134;5.596;2022-10-26T01:35:34;34.38;;;16.40;;
19205;SDS011;59358;52.134;5.596;2022-10-26T01:38:09;32.17;;;16.27;;
19205;SDS011;59358;52.134;5.596;2022-10-26T01:40:44;28.13;;;16.13;;
19205;SDS011;59358;52.134;5.596;2022-10-26T01:43:14;24.17;;;15.40;;
19205;SDS011;59358;52.134;5.596;2022-10-26T01:45:44;24.90;;;16.13;;
19205;SDS011;59358;52.134;5.596;2022-10-26T01:48:13;26.98;;;15.88;;
19205;SDS011;59358;52.134;5.596;2022-10-26T01:50:44;26.83;;;15.85;;
19205;SDS011;59358;52.134;5.596;2022-10-26T01:53:13;27.88;;;16.92;;
19205;SDS011;59358;52.134;5.596;2022-10-26T01:55:43;25.85;;;16.23;;
19205;SDS011;59358;52.134;5.596;2022-10-26T01:58:15;27.08;;;15.40;;
19205;SDS011;59358;52.134;5.596;2022-10-26T02:01:13;33.25;;;15.00;;
19205;SDS011;59358;52.134;5.596;2022-10-26T02:03:51;27.35;;;15.73;;
19205;SDS011;59358;52.134;5.596;2022-10-26T02:06:28;24.70;;;14.80;;
19205;SDS011;59358;52.134;5.596;2022-10-26T02:09:04;28.10;;;15.55;;
19205;SDS011;59358;52.134;5.596;2022-10-26T02:11:38;21.70;;;13.75;;
19205;SDS011;59358;52.134;5.596;2022-10-26T02:14:10;21.02;;;14.02;;
19205;SDS011;59358;52.134;5.596;2022-10-26T02:16:48;28.83;;;14.88;;
19205;SDS011;59358;52.134;5.596;2022-10-26T02:19:28;23.23;;;13.93;;
19205;SDS011;59358;52.134;5.596;2022-10-26T02:22:01;24.75;;;13.70;;
19205;SDS011;59358;52.134;5.596;2022-10-26T02:24:31;27.08;;;14.07;;
19205;SDS011;59358;52.134;5.596;2022-10-26T02:27:00;24.23;;;15.75;;
19205;SDS011;59358;52.134;5.596;2022-10-26T02:29:29;20.00;;;13.23;;
19205;SDS011;59358;52.134;5.596;2022-10-26T02:31:59;24.77;;;13.73;;
19205;SDS011;59358;52.134;5.596;2022-10-26T02:34:27;28.92;;;15.18;;
19205;SDS011;59358;52.134;5.596;2022-10-26T02:36:56;26.85;;;13.85;;
19205;SDS011;59358;52.134;5.596;2022-10-26T02:39:26;20.50;;;12.85;;
19205;SDS011;59358;52.134;5.596;2022-10-26T02:41:59;28.48;;;13.68;;
19205;SDS011;59358;52.134;5.596;2022-10-26T02:44:29;23.30;;;12.65;;
19205;SDS011;59358;52.134;5.596;2022-10-26T02:47:00;26.08;;;12.80;;
19205;SDS011;59358;52.134;5.596;2022-10-26T02:49:27;20.00;;;12.80;;
19205;SDS011;59358;52.134;5.596;2022-10-26T02:51:57;20.63;;;11.57;;
19205;SDS011;59358;52.134;5.596;2022-10-26T02:54:31;19.02;;;10.68;;
19205;SDS011;59358;52.134;5.596;2022-10-26T02:57:03;19.33;;;10.82;;
19205;SDS011;59358;52.134;5.596;2022-10-26T02:59:34;20.75;;;11.60;;
19205;SDS011;59358;52.134;5.596;2022-10-26T03:02:04;20.45;;;11.52;;
19205;SDS011;59358;52.134;5.596;2022-10-26T03:04:31;17.92;;;11.35;;
19205;SDS011;59358;52.134;5.596;2022-10-26T03:06:59;17.15;;;10.13;;
19205;SDS011;59358;52.134;5.596;2022-10-26T03:09:27;24.38;;;11.23;;
19205;SDS011;59358;52.134;5.596;2022-10-26T03:11:54;22.05;;;11.88;;
19205;SDS011;59358;52.134;5.596;2022-10-26T03:14:21;21.58;;;11.93;;
19205;SDS011;59358;52.134;5.596;2022-10-26T03:16:48;28.63;;;13.65;;
19205;SDS011;59358;52.134;5.596;2022-10-26T03:19:16;25.33;;;15.20;;
19205;SDS011;59358;52.134;5.596;2022-10-26T03:21:43;24.35;;;15.10;;
19205;SDS011;59358;52.134;5.596;2022-10-26T03:24:09;26.60;;;13.93;;
19205;SDS011;59358;52.134;5.596;2022-10-26T03:26:36;28.70;;;14.20;;
19205;SDS011;59358;52.134;5.596;2022-10-26T03:29:03;26.98;;;14.52;;
19205;SDS011;59358;52.134;5.596;2022-10-26T03:31:30;24.08;;;14.13;;
19205;SDS011;59358;52.134;5.596;2022-10-26T03:33:57;25.27;;;13.13;;
19205;SDS011;59358;52.134;5.596;2022-10-26T03:36:26;18.38;;;12.07;;
19205;SDS011;59358;52.134;5.596;2022-10-26T03:38:52;22.30;;;12.30;;
19205;SDS011;59358;52.134;5.596;2022-10-26T03:41:19;16.88;;;10.93;;
19205;SDS011;59358;52.134;5.596;2022-10-26T03:43:46;21.55;;;11.52;;
19205;SDS011;59358;52.134;5.596;2022-10-26T03:46:13;15.60;;;10.20;;
19205;SDS011;59358;52.134;5.596;2022-10-26T03:48:40;17.80;;;10.50;;
19205;SDS011;59358;52.134;5.596;2022-10-26T03:51:07;18.98;;;10.05;;
19205;SDS011;59358;52.134;5.596;2022-10-26T03:53:35;18.45;;;9.30;;
19205;SDS011;59358;52.134;5.596;2022-10-26T03:56:02;15.27;;;9.13;;
19205;SDS011;59358;52.134;5.596;2022-10-26T03:58:28;14.73;;;9.60;;
19205;SDS011;59358;52.134;5.596;2022-10-26T04:00:55;16.30;;;9.85;;
19205;SDS011;59358;52.134;5.596;2022-10-26T04:03:22;16.33;;;10.30;;
19205;SDS011;59358;52.134;5.596;2022-10-26T04:05:49;19.88;;;11.13;;
19205;SDS011;59358;52.134;5.596;2022-10-26T04:08:15;16.95;;;10.25;;
19205;SDS011;59358;52.134;5.596;2022-10-26T04:10:44;19.48;;;9.70;;
19205;SDS011;59358;52.134;5.596;2022-10-26T04:13:11;17.75;;;9.63;;
19205;SDS011;59358;52.134;5.596;2022-10-26T04:15:38;22.63;;;10.43;;
19205;SDS011;59358;52.134;5.596;2022-10-26T04:18:05;18.65;;;9.88;;
19205;SDS011;59358;52.134;5.596;2022-10-26T04:20:32;16.00;;;9.65;;
19205;SDS011;59358;52.134;5.596;2022-10-26T04:23:01;14.45;;;8.57;;
19205;SDS011;59358;52.134;5.596;2022-10-26T04:25:29;13.68;;;9.13;;
19205;SDS011;59358;52.134;5.596;2022-10-26T04:27:58;15.48;;;9.50;;
19205;SDS011;59358;52.134;5.596;2022-10-26T04:30:25;14.68;;;9.38;;
19205;SDS011;59358;52.134;5.596;2022-10-26T04:32:51;15.98;;;9.60;;
19205;SDS011;59358;52.134;5.596;2022-10-26T04:35:18;13.95;;;8.50;;
19205;SDS011;59358;52.134;5.596;2022-10-26T04:37:45;18.17;;;10.10;;
19205;SDS011;59358;52.134;5.596;2022-10-26T04:40:12;17.52;;;10.10;;
19205;SDS011;59358;52.134;5.596;2022-10-26T04:42:39;16.25;;;8.35;;
19205;SDS011;59358;52.134;5.596;2022-10-26T04:45:09;16.75;;;9.80;;
19205;SDS011;59358;52.134;5.596;2022-10-26T04:47:38;19.50;;;10.77;;
19205;SDS011;59358;52.134;5.596;2022-10-26T04:50:05;18.77;;;10.10;;
19205;SDS011;59358;52.134;5.596;2022-10-26T04:52:33;17.65;;;10.05;;
19205;SDS011;59358;52.134;5.596;2022-10-26T04:55:00;18.67;;;10.00;;
19205;SDS011;59358;52.134;5.596;2022-10-26T04:57:30;18.65;;;11.00;;
19205;SDS011;59358;52.134;5.596;2022-10-26T04:59:56;17.50;;;10.95;;
19205;SDS011;59358;52.134;5.596;2022-10-26T05:02:24;24.13;;;11.10;;
19205;SDS011;59358;52.134;5.596;2022-10-26T05:04:55;22.85;;;12.65;;
19205;SDS011;59358;52.134;5.596;2022-10-26T05:07:22;15.68;;;10.05;;
19205;SDS011;59358;52.134;5.596;2022-10-26T05:09:48;21.67;;;11.07;;
19205;SDS011;59358;52.134;5.596;2022-10-26T05:12:15;25.48;;;11.13;;
19205;SDS011;59358;52.134;5.596;2022-10-26T05:14:42;21.23;;;11.68;;
19205;SDS011;59358;52.134;5.596;2022-10-26T05:17:09;21.90;;;12.02;;
19205;SDS011;59358;52.134;5.596;2022-10-26T05:19:38;19.83;;;11.75;;
19205;SDS011;59358;52.134;5.596;2022-10-26T05:22:05;19.80;;;10.90;;
19205;SDS011;59358;52.134;5.596;2022-10-26T05:24:32;16.13;;;10.63;;
19205;SDS011;59358;52.134;5.596;2022-10-26T05:26:59;19.15;;;9.75;;
19205;SDS011;59358;52.134;5.596;2022-10-26T05:29:26;18.13;;;10.65;;
19205;SDS011;59358;52.134;5.596;2022-10-26T05:31:52;15.80;;;10.38;;
19205;SDS011;59358;52.134;5.596;2022-10-26T05:34:19;14.27;;;9.18;;
19205;SDS011;59358;52.134;5.596;2022-10-26T05:36:47;16.55;;;10.60;;
19205;SDS011;59358;52.134;5.596;2022-10-26T05:39:14;19.70;;;10.05;;
19205;SDS011;59358;52.134;5.596;2022-10-26T05:41:41;25.48;;;11.05;;
19205;SDS011;59358;52.134;5.596;2022-10-26T05:44:07;17.25;;;10.77;;
19205;SDS011;59358;52.134;5.596;2022-10-26T05:46:34;17.52;;;11.38;;
19205;SDS011;59358;52.134;5.596;2022-10-26T05:49:01;18.70;;;10.90;;
19205;SDS011;59358;52.134;5.596;2022-10-26T05:51:28;21.80;;;11.32;;
19205;SDS011;59358;52.134;5.596;2022-10-26T05:53:58;23.52;;;11.05;;
19205;SDS011;59358;52.134;5.596;2022-10-26T05:56:31;17.95;;;11.27;;
19205;SDS011;59358;52.134;5.596;2022-10-26T05:59:00;24.35;;;12.50;;
19205;SDS011;59358;52.134;5.596;2022-10-26T06:01:29;20.23;;;11.07;;
19205;SDS011;59358;52.134;5.596;2022-10-26T06:04:10;19.05;;;9.95;;
19205;SDS011;59358;52.134;5.596;2022-10-26T06:06:46;21.77;;;10.38;;
19205;SDS011;59358;52.134;5.596;2022-10-26T06:09:20;18.15;;;10.10;;
19205;SDS011;59358;52.134;5.596;2022-10-26T06:11:47;21.48;;;10.00;;
19205;SDS011;59358;52.134;5.596;2022-10-26T06:14:14;16.27;;;10.15;;
19205;SDS011;59358;52.134;5.596;2022-10-26T06:16:46;15.70;;;9.35;;
19205;SDS011;59358;52.134;5.596;2022-10-26T06:19:25;15.02;;;9.60;;
19205;SDS011;59358;52.134;5.596;2022-10-26T06:22:05;15.63;;;8.60;;
19205;SDS011;59358;52.134;5.596;2022-10-26T06:24:45;16.38;;;9.30;;
19205;SDS011;59358;52.134;5.596;2022-10-26T06:27:26;15.68;;;9.35;;
19205;SDS011;59358;52.134;5.596;2022-10-26T06:30:02;13.73;;;8.50;;
19205;SDS011;59358;52.134;5.596;2022-10-26T06:32:31;17.80;;;8.63;;
19205;SDS011;59358;52.134;5.596;2022-10-26T06:35:01;18.15;;;9.18;;
19205;SDS011;59358;52.134;5.596;2022-10-26T06:38:13;15.85;;;8.00;;
19205;SDS011;59358;52.134;5.596;2022-10-26T06:41:07;15.32;;;8.23;;
19205;SDS011;59358;52.134;5.596;2022-10-26T06:43:45;13.48;;;7.20;;
19205;SDS011;59358;52.134;5.596;2022-10-26T06:46:22;12.43;;;7.68;;
19205;SDS011;59358;52.134;5.596;2022-10-26T06:49:06;17.85;;;8.18;;
19205;SDS011;59358;52.134;5.596;2022-10-26T06:51:45;13.65;;;7.63;;
19205;SDS011;59358;52.134;5.596;2022-10-26T06:54:19;14.30;;;7.60;;
19205;SDS011;59358;52.134;5.596;2022-10-26T06:56:55;16.83;;;7.78;;
19205;SDS011;59358;52.134;5.596;2022-10-26T06:59:36;14.10;;;7.82;;
19205;SDS011;59358;52.134;5.596;2022-10-26T07:02:11;13.10;;;8.00;;
19205;SDS011;59358;52.134;5.596;2022-10-26T07:04:38;11.65;;;7.30;;
19205;SDS011;59358;52.134;5.596;2022-10-26T07:07:08;15.20;;;7.68;;
19205;SDS011;59358;52.134;5.596;2022-10-26T07:09:42;13.32;;;7.28;;
19205;SDS011;59358;52.134;5.596;2022-10-26T07:12:14;19.10;;;8.88;;
19205;SDS011;59358;52.134;5.596;2022-10-26T07:14:42;10.43;;;6.78;;
19205;SDS011;59358;52.134;5.596;2022-10-26T07:17:09;12.68;;;6.93;;
19205;SDS011;59358;52.134;5.596;2022-10-26T07:19:37;11.80;;;7.10;;
19205;SDS011;59358;52.134;5.596;2022-10-26T07:22:04;11.63;;;6.53;;
19205;SDS011;59358;52.134;5.596;2022-10-26T07:24:31;14.32;;;7.05;;
19205;SDS011;59358;52.134;5.596;2022-10-26T07:26:58;16.60;;;6.93;;
19205;SDS011;59358;52.134;5.596;2022-10-26T07:29:26;14.02;;;6.60;;
19205;SDS011;59358;52.134;5.596;2022-10-26T07:31:54;15.80;;;6.85;;
19205;SDS011;59358;52.134;5.596;2022-10-26T07:34:21;9.57;;;5.47;;
19205;SDS011;59358;52.134;5.596;2022-10-26T07:36:47;10.95;;;5.85;;
19205;SDS011;59358;52.134;5.596;2022-10-26T07:39:15;9.13;;;5.93;;
19205;SDS011;59358;52.134;5.596;2022-10-26T07:41:43;9.55;;;4.60;;
19205;SDS011;59358;52.134;5.596;2022-10-26T07:44:11;13.23;;;4.93;;
19205;SDS011;59358;52.134;5.596;2022-10-26T07:46:39;8.18;;;4.90;;
19205;SDS011;59358;52.134;5.596;2022-10-26T07:49:05;11.10;;;4.82;;
19205;SDS011;59358;52.134;5.596;2022-10-26T07:51:32;8.40;;;4.85;;
19205;SDS011;59358;52.134;5.596;2022-10-26T07:53:59;9.95;;;4.75;;
19205;SDS011;59358;52.134;5.596;2022-10-26T07:56:26;8.82;;;5.18;;
19205;SDS011;59358;52.134;5.596;2022-10-26T07:58:54;9.57;;;5.00;;
19205;SDS011;59358;52.134;5.596;2022-10-26T08:01:22;9.45;;;4.60;;
19205;SDS011;59358;52.134;5.596;2022-10-26T08:03:51;8.30;;;4.63;;
19205;SDS011;59358;52.134;5.596;2022-10-26T08:06:18;8.10;;;5.10;;
19205;SDS011;59358;52.134;5.596;2022-10-26T08:08:45;8.73;;;4.53;;
19205;SDS011;59358;52.134;5.596;2022-10-26T08:11:12;6.57;;;3.90;;
19205;SDS011;59358;52.134;5.596;2022-10-26T08:13:39;10.10;;;4.65;;
19205;SDS011;59358;52.134;5.596;2022-10-26T08:16:06;13.80;;;5.55;;
19205;SDS011;59358;52.134;5.596;2022-10-26T08:18:34;10.48;;;4.25;;
19205;SDS011;59358;52.134;5.596;2022-10-26T08:21:03;5.55;;;4.07;;
19205;SDS011;59358;52.134;5.596;2022-10-26T08:23:31;10.63;;;3.33;;
19205;SDS011;59358;52.134;5.596;2022-10-26T08:25:59;11.60;;;3.92;;
19205;SDS011;59358;52.134;5.596;2022-10-26T08:28:26;7.30;;;3.70;;
19205;SDS011;59358;52.134;5.596;2022-10-26T08:30:54;7.85;;;3.50;;
19205;SDS011;59358;52.134;5.596;2022-10-26T08:33:21;7.65;;;3.45;;
19205;SDS011;59358;52.134;5.596;2022-10-26T08:35:48;9.50;;;3.83;;
19205;SDS011;59358;52.134;5.596;2022-10-26T08:38:21;8.55;;;4.10;;
19205;SDS011;59358;52.134;5.596;2022-10-26T08:40:48;7.78;;;3.78;;
19205;SDS011;59358;52.134;5.596;2022-10-26T08:43:16;9.75;;;4.68;;
19205;SDS011;59358;52.134;5.596;2022-10-26T08:45:49;9.52;;;4.22;;
19205;SDS011;59358;52.134;5.596;2022-10-26T08:48:20;5.95;;;3.53;;
19205;SDS011;59358;52.134;5.596;2022-10-26T08:50:50;11.38;;;4.53;;
19205;SDS011;59358;52.134;5.596;2022-10-26T08:53:22;6.03;;;3.88;;
19205;SDS011;59358;52.134;5.596;2022-10-26T08:55:55;8.57;;;4.32;;
19205;SDS011;59358;52.134;5.596;2022-10-26T08:58:26;5.72;;;3.22;;
19205;SDS011;59358;52.134;5.596;2022-10-26T09:00:57;8.38;;;4.22;;
19205;SDS011;59358;52.134;5.596;2022-10-26T09:03:25;5.95;;;4.28;;
19205;SDS011;59358;52.134;5.596;2022-10-26T09:05:56;14.38;;;5.07;;
19205;SDS011;59358;52.134;5.596;2022-10-26T09:08:37;10.10;;;3.83;;
19205;SDS011;59358;52.134;5.596;2022-10-26T09:11:17;6.07;;;4.80;;
19205;SDS011;59358;52.134;5.596;2022-10-26T09:13:54;10.23;;;4.63;;
19205;SDS011;59358;52.134;5.596;2022-10-26T09:16:30;8.75;;;5.05;;
19205;SDS011;59358;52.134;5.596;2022-10-26T09:19:13;7.53;;;4.57;;
19205;SDS011;59358;52.134;5.596;2022-10-26T09:21:53;5.90;;;4.45;;
19205;SDS011;59358;52.134;5.596;2022-10-26T09:24:28;7.63;;;4.60;;
19205;SDS011;59358;52.134;5.596;2022-10-26T09:26:57;10.95;;;5.28;;
19205;SDS011;59358;52.134;5.596;2022-10-26T09:29:33;6.57;;;4.63;;
19205;SDS011;59358;52.134;5.596;2022-10-26T09:32:08;11.93;;;4.68;;
19205;SDS011;59358;52.134;5.596;2022-10-26T09:34:44;7.43;;;4.78;;
19205;SDS011;59358;52.134;5.596;2022-10-26T09:37:15;8.43;;;4.60;;
19205;SDS011;59358;52.134;5.596;2022-10-26T09:39:48;6.82;;;4.47;;
19205;SDS011;59358;52.134;5.596;2022-10-26T09:42:23;11.82;;;4.68;;
19205;SDS011;59358;52.134;5.596;2022-10-26T09:44:57;9.02;;;4.85;;
19205;SDS011;59358;52.134;5.596;2022-10-26T09:47:44;10.32;;;4.97;;
19205;SDS011;59358;52.134;5.596;2022-10-26T09:50:17;12.98;;;4.70;;
19205;SDS011;59358;52.134;5.596;2022-10-26T09:52:48;8.38;;;4.95;;
19205;SDS011;59358;52.134;5.596;2022-10-26T09:55:16;9.18;;;4.30;;
19205;SDS011;59358;52.134;5.596;2022-10-26T09:57:45;7.82;;;4.45;;
19205;SDS011;59358;52.134;5.596;2022-10-26T10:00:14;6.70;;;3.97;;
19205;SDS011;59358;52.134;5.596;2022-10-26T10:02:42;6.78;;;4.43;;
19205;SDS011;59358;52.134;5.596;2022-10-26T10:05:19;8.48;;;4.25;;
19205;SDS011;59358;52.134;5.596;2022-10-26T10:07:48;5.57;;;3.95;;
19205;SDS011;59358;52.134;5.596;2022-10-26T10:10:17;9.38;;;4.57;;
19205;SDS011;59358;52.134;5.596;2022-10-26T10:12:45;9.60;;;4.15;;
19205;SDS011;59358;52.134;5.596;2022-10-26T10:15:16;11.40;;;4.50;;
19205;SDS011;59358;52.134;5.596;2022-10-26T10:17:48;8.60;;;3.95;;
19205;SDS011;59358;52.134;5.596;2022-10-26T10:20:17;9.93;;;4.28;;
19205;SDS011;59358;52.134;5.596;2022-10-26T10:22:56;10.73;;;4.70;;
19205;SDS011;59358;52.134;5.596;2022-10-26T10:25:32;10.73;;;4.40;;
19205;SDS011;59358;52.134;5.596;2022-10-26T10:28:02;6.65;;;4.50;;
19205;SDS011;59358;52.134;5.596;2022-10-26T10:30:50;9.23;;;4.18;;
19205;SDS011;59358;52.134;5.596;2022-10-26T10:33:19;8.20;;;3.78;;
19205;SDS011;59358;52.134;5.596;2022-10-26T10:35:47;6.43;;;4.18;;
19205;SDS011;59358;52.134;5.596;2022-10-26T10:38:17;8.43;;;4.10;;
19205;SDS011;59358;52.134;5.596;2022-10-26T10:40:52;8.27;;;4.60;;
19205;SDS011;59358;52.134;5.596;2022-10-26T10:43:21;10.98;;;5.15;;
19205;SDS011;59358;52.134;5.596;2022-10-26T10:45:49;11.65;;;4.80;;
19205;SDS011;59358;52.134;5.596;2022-10-26T10:48:18;17.73;;;5.15;;
19205;SDS011;59358;52.134;5.596;2022-10-26T10:50:51;7.95;;;4.25;;
19205;SDS011;59358;52.134;5.596;2022-10-26T10:53:21;8.50;;;4.53;;
19205;SDS011;59358;52.134;5.596;2022-10-26T10:56:04;7.63;;;4.22;;
19205;SDS011;59358;52.134;5.596;2022-10-26T10:58:41;8.10;;;3.85;;
19205;SDS011;59358;52.134;5.596;2022-10-26T11:01:16;9.15;;;4.10;;
19205;SDS011;59358;52.134;5.596;2022-10-26T11:03:51;7.70;;;3.70;;
19205;SDS011;59358;52.134;5.596;2022-10-26T11:06:41;9.52;;;3.83;;
19205;SDS011;59358;52.134;5.596;2022-10-26T11:09:10;11.13;;;4.68;;
19205;SDS011;59358;52.134;5.596;2022-10-26T11:11:42;6.60;;;3.85;;
19205;SDS011;59358;52.134;5.596;2022-10-26T11:14:13;8.05;;;4.18;;
19205;SDS011;59358;52.134;5.596;2022-10-26T11:16:43;8.27;;;4.15;;
19205;SDS011;59358;52.134;5.596;2022-10-26T11:19:15;9.07;;;4.13;;
19205;SDS011;59358;52.134;5.596;2022-10-26T11:21:47;12.00;;;4.03;;
19205;SDS011;59358;52.134;5.596;2022-10-26T11:24:19;10.52;;;3.90;;
19205;SDS011;59358;52.134;5.596;2022-10-26T11:26:53;8.93;;;4.15;;
19205;SDS011;59358;52.134;5.596;2022-10-26T11:29:29;7.45;;;3.65;;
19205;SDS011;59358;52.134;5.596;2022-10-26T11:32:02;13.85;;;4.60;;
19205;SDS011;59358;52.134;5.596;2022-10-26T11:34:33;9.63;;;4.57;;
19205;SDS011;59358;52.134;5.596;2022-10-26T11:37:07;7.35;;;4.20;;
19205;SDS011;59358;52.134;5.596;2022-10-26T11:39:42;7.00;;;4.28;;
19205;SDS011;59358;52.134;5.596;2022-10-26T11:42:17;8.90;;;4.55;;
19205;SDS011;59358;52.134;5.596;2022-10-26T11:44:51;6.82;;;4.15;;
19205;SDS011;59358;52.134;5.596;2022-10-26T11:47:23;6.85;;;4.53;;
19205;SDS011;59358;52.134;5.596;2022-10-26T11:50:01;11.77;;;4.85;;
19205;SDS011;59358;52.134;5.596;2022-10-26T11:52:33;7.50;;;4.07;;
19205;SDS011;59358;52.134;5.596;2022-10-26T11:55:04;9.73;;;4.53;;
19205;SDS011;59358;52.134;5.596;2022-10-26T11:57:35;13.48;;;4.70;;
19205;SDS011;59358;52.134;5.596;2022-10-26T12:00:04;8.50;;;3.50;;
19205;SDS011;59358;52.134;5.596;2022-10-26T12:02:35;11.88;;;4.60;;
19205;SDS011;59358;52.134;5.596;2022-10-26T12:05:19;7.20;;;3.88;;
19205;SDS011;59358;52.134;5.596;2022-10-26T12:07:49;9.25;;;4.25;;
19205;SDS011;59358;52.134;5.596;2022-10-26T12:10:21;10.15;;;4.75;;
19205;SDS011;59358;52.134;5.596;2022-10-26T12:12:57;12.38;;;5.10;;
19205;SDS011;59358;52.134;5.596;2022-10-26T12:15:30;11.05;;;4.18;;
19205;SDS011;59358;52.134;5.596;2022-10-26T12:18:04;6.95;;;4.10;;
19205;SDS011;59358;52.134;5.596;2022-10-26T12:20:47;6.75;;;4.68;;
19205;SDS011;59358;52.134;5.596;2022-10-26T12:23:19;8.13;;;4.45;;
19205;SDS011;59358;52.134;5.596;2022-10-26T12:25:47;8.95;;;4.70;;
19205;SDS011;59358;52.134;5.596;2022-10-26T12:31:42;8.80;;;4.03;;
19205;SDS011;59358;52.134;5.596;2022-10-26T12:34:12;7.05;;;4.10;;
19205;SDS011;59358;52.134;5.596;2022-10-26T12:36:47;7.85;;;4.05;;
19205;SDS011;59358;52.134;5.596;2022-10-26T12:39:25;9.63;;;3.58;;
19205;SDS011;59358;52.134;5.596;2022-10-26T12:41:54;7.03;;;3.53;;
19205;SDS011;59358;52.134;5.596;2022-10-26T12:44:33;8.32;;;3.53;;
19205;SDS011;59358;52.134;5.596;2022-10-26T12:47:01;8.45;;;3.50;;
19205;SDS011;59358;52.134;5.596;2022-10-26T12:52:32;5.15;;;2.75;;
19205;SDS011;59358;52.134;5.596;2022-10-26T12:55:20;5.53;;;2.90;;
19205;SDS011;59358;52.134;5.596;2022-10-26T12:58:21;7.63;;;2.75;;
19205;SDS011;59358;52.134;5.596;2022-10-26T13:01:20;7.00;;;3.33;;
19205;SDS011;59358;52.134;5.596;2022-10-26T13:04:11;6.35;;;3.10;;
19205;SDS011;59358;52.134;5.596;2022-10-26T13:06:53;6.93;;;3.42;;
19205;SDS011;59358;52.134;5.596;2022-10-26T13:09:39;6.35;;;2.60;;
19205;SDS011;59358;52.134;5.596;2022-10-26T13:12:10;4.15;;;3.05;;
19205;SDS011;59358;52.134;5.596;2022-10-26T13:14:39;7.97;;;3.20;;
19205;SDS011;59358;52.134;5.596;2022-10-26T13:17:22;7.88;;;2.72;;
19205;SDS011;59358;52.134;5.596;2022-10-26T13:19:53;8.15;;;2.83;;
19205;SDS011;59358;52.134;5.596;2022-10-26T13:22:22;5.63;;;3.00;;
19205;SDS011;59358;52.134;5.596;2022-10-26T13:24:50;3.75;;;3.05;;
19205;SDS011;59358;52.134;5.596;2022-10-26T13:27:23;9.60;;;3.40;;
19205;SDS011;59358;52.134;5.596;2022-10-26T13:30:33;5.97;;;2.90;;
19205;SDS011;59358;52.134;5.596;2022-10-26T13:33:20;7.22;;;3.20;;
19205;SDS011;59358;52.134;5.596;2022-10-26T13:35:55;6.75;;;3.00;;
19205;SDS011;59358;52.134;5.596;2022-10-26T13:38:30;5.60;;;3.20;;
19205;SDS011;59358;52.134;5.596;2022-10-26T13:41:05;4.22;;;2.95;;
19205;SDS011;59358;52.134;5.596;2022-10-26T13:43:39;5.57;;;3.80;;
19205;SDS011;59358;52.134;5.596;2022-10-26T13:46:12;8.88;;;3.38;;
19205;SDS011;59358;52.134;5.596;2022-10-26T13:48:50;11.10;;;4.03;;
19205;SDS011;59358;52.134;5.596;2022-10-26T13:51:19;7.88;;;3.30;;
19205;SDS011;59358;52.134;5.596;2022-10-26T13:53:49;5.28;;;3.42;;
19205;SDS011;59358;52.134;5.596;2022-10-26T13:56:24;8.93;;;4.22;;
19205;SDS011;59358;52.134;5.596;2022-10-26T13:58:56;9.73;;;4.35;;
19205;SDS011;59358;52.134;5.596;2022-10-26T14:01:26;4.80;;;3.85;;
19205;SDS011;59358;52.134;5.596;2022-10-26T14:03:54;7.30;;;3.70;;
19205;SDS011;59358;52.134;5.596;2022-10-26T14:06:25;5.22;;;3.72;;
19205;SDS011;59358;52.134;5.596;2022-10-26T14:08:54;7.00;;;3.47;;
19205;SDS011;59358;52.134;5.596;2022-10-26T14:11:27;6.18;;;3.97;;
19205;SDS011;59358;52.134;5.596;2022-10-26T14:13:58;7.43;;;3.95;;
19205;SDS011;59358;52.134;5.596;2022-10-26T14:16:26;9.00;;;3.70;;
19205;SDS011;59358;52.134;5.596;2022-10-26T14:18:58;6.25;;;4.07;;
19205;SDS011;59358;52.134;5.596;2022-10-26T14:21:25;7.60;;;4.47;;
19205;SDS011;59358;52.134;5.596;2022-10-26T14:23:54;13.48;;;5.28;;
19205;SDS011;59358;52.134;5.596;2022-10-26T14:26:23;7.18;;;4.40;;
19205;SDS011;59358;52.134;5.596;2022-10-26T14:28:52;7.95;;;5.13;;
19205;SDS011;59358;52.134;5.596;2022-10-26T14:31:22;6.97;;;4.82;;
19205;SDS011;59358;52.134;5.596;2022-10-26T14:33:51;7.78;;;5.40;;
19205;SDS011;59358;52.134;5.596;2022-10-26T14:36:21;5.13;;;4.63;;
19205;SDS011;59358;52.134;5.596;2022-10-26T14:38:53;10.10;;;5.55;;
19205;SDS011;59358;52.134;5.596;2022-10-26T14:41:23;6.93;;;5.45;;
19205;SDS011;59358;52.134;5.596;2022-10-26T14:43:51;10.02;;;5.95;;
19205;SDS011;59358;52.134;5.596;2022-10-26T14:46:21;8.52;;;5.07;;
19205;SDS011;59358;52.134;5.596;2022-10-26T14:48:51;11.32;;;5.85;;
19205;SDS011;59358;52.134;5.596;2022-10-26T14:51:24;7.70;;;5.72;;
19205;SDS011;59358;52.134;5.596;2022-10-26T14:53:52;10.93;;;5.15;;
19205;SDS011;59358;52.134;5.596;2022-10-26T14:56:22;9.52;;;5.50;;
19205;SDS011;59358;52.134;5.596;2022-10-26T14:58:52;6.00;;;4.97;;
19205;SDS011;59358;52.134;5.596;2022-10-26T15:01:27;8.40;;;5.60;;
19205;SDS011;59358;52.134;5.596;2022-10-26T15:03:57;8.13;;;5.18;;
19205;SDS011;59358;52.134;5.596;2022-10-26T15:06:29;10.05;;;5.20;;
19205;SDS011;59358;52.134;5.596;2022-10-26T15:08:58;9.45;;;4.50;;